Test XHTML 1.0 Strict Page for WU-History Testing
Datos historicos para Xert
Diario Historicos para Junio 22, 2024 unidades:  Ambos    Imperiales   Metrico
« Anterior Dia
Proximo Dia »
Diario Semanal Mensual Anual Personalizado
  Max: Min: Promedio:
Temperatura: 82.4 °F /  28.0 °C 59 °F /  15.0 °C 71.2 °F /  21.8 °C
Punto de rocio: 62.6 °F /  17.0 °C 53.6 °F /  12.0 °C 57.2 °F /  14 °C
Humedad: 83% 44% 63%
Viento: 24.2mph /  39km/h - 6.2mph /  9.9km/h
Rafagas: 24.2mph /  39km/h - -
Viento- - SSW
Presion: 30.2 in /  1021.7 hPa 30.1 in /  1017.6 hPa -
Lluvia: 0 in /  0.00 mm    
Historical Graphs
 
 
Observa nuestra WebCam, mapa de radar de tormentas para Europa y mapa del radar de nuvosidad

Weather Camera

Radar Tormentas

Radar Sat24

Radar Meteociel





Condiciones meteorologicas Actuales:

Datos tabulados para Junio 22, 2024
Hora Temperatura Punto Rocio Presion Viento Viento Rafagas Humedad Tasa lluvia (1 hora) solar Condiciones
00:00 62.6 °F /  17.0 °C 55.4 °F /  13.0 °C 30.2in /  1021.7hPa Calm   1.9mph /  3km/h 81% 0in /  0.00mm 0.00 W/m2 unknown
00:05 62.6 °F /  17.0 °C 55.4 °F /  13.0 °C 30.2in /  1021.7hPa Calm   1.9mph /  3km/h 81% 0in /  0.00mm 0.00 W/m2 unknown
00:14 60.8 °F /  16.0 °C 55.4 °F /  13.0 °C 30.2in /  1021.7hPa Calm     82% 0in /  0.00mm 0.00 W/m2 unknown
00:19 60.8 °F /  16.0 °C 55.4 °F /  13.0 °C 30.2in /  1021.7hPa Calm     81% 0in /  0.00mm 0.00 W/m2 unknown
00:24 60.8 °F /  16.0 °C 55.4 °F /  13.0 °C 30.2in /  1021.7hPa Calm     81% 0in /  0.00mm 0.00 W/m2 unknown
00:29 60.8 °F /  16.0 °C 55.4 °F /  13.0 °C 30.2in /  1021.7hPa Calm     80% 0in /  0.00mm 0.00 W/m2 unknown
00:34 60.8 °F /  16.0 °C 55.4 °F /  13.0 °C 30.2in /  1021.7hPa Calm     79% 0in /  0.00mm 0.00 W/m2 unknown
00:39 62.6 °F /  17.0 °C 55.4 °F /  13.0 °C 30.2in /  1021.7hPa Calm     79% 0in /  0.00mm 0.00 W/m2 unknown
00:44 62.6 °F /  17.0 °C 55.4 °F /  13.0 °C 30.2in /  1021.7hPa Calm     78% 0in /  0.00mm 0.00 W/m2 unknown
00:49 62.6 °F /  17.0 °C 55.4 °F /  13.0 °C 30.2in /  1021.7hPa WSW 3.7mph /  6km/h 3.7mph /  6km/h 78% 0in /  0.00mm 0.00 W/m2 unknown
00:54 62.6 °F /  17.0 °C 55.4 °F /  13.0 °C 30.2in /  1021.7hPa WSW 1.9mph /  3km/h 3.7mph /  6km/h 77% 0in /  0.00mm 0.00 W/m2 unknown
00:59 62.6 °F /  17.0 °C 55.4 °F /  13.0 °C 30.2in /  1021.7hPa WNW 1.9mph /  3km/h 5mph /  8km/h 76% 0in /  0.00mm 0.00 W/m2 unknown
01:04 62.6 °F /  17.0 °C 55.4 °F /  13.0 °C 30.2in /  1021.7hPa WNW 3.1mph /  5km/h 5mph /  8km/h 76% 0in /  0.00mm 0.00 W/m2 unknown
01:09 64.4 °F /  18.0 °C 55.4 °F /  13.0 °C 30.2in /  1021.7hPa WNW 3.7mph /  6km/h 3.7mph /  6km/h 76% 0in /  0.00mm 0.00 W/m2 unknown
01:13 64.4 °F /  18.0 °C 55.4 °F /  13.0 °C 30.2in /  1021.7hPa WNW 5mph /  8km/h 6.8mph /  11km/h 75% 0in /  0.00mm 0.00 W/m2 unknown
01:19 64.4 °F /  18.0 °C 55.4 °F /  13.0 °C 30.2in /  1021.7hPa WNW 3.7mph /  6km/h 6.8mph /  11km/h 73% 0in /  0.00mm 0.00 W/m2 unknown
01:24 64.4 °F /  18.0 °C 55.4 °F /  13.0 °C 30.2in /  1021.7hPa WNW 1.9mph /  3km/h 8.7mph /  14km/h 72% 0in /  0.00mm 0.00 W/m2 unknown
01:29 64.4 °F /  18.0 °C 55.4 °F /  13.0 °C 30.2in /  1021.7hPa WNW 3.1mph /  5km/h 5mph /  8km/h 72% 0in /  0.00mm 0.00 W/m2 unknown
01:34 64.4 °F /  18.0 °C 55.4 °F /  13.0 °C 30.2in /  1021.7hPa WNW 3.1mph /  5km/h 5mph /  8km/h 72% 0in /  0.00mm 0.00 W/m2 unknown
01:39 64.4 °F /  18.0 °C 55.4 °F /  13.0 °C 30.2in /  1021.7hPa WNW 1.2mph /  2km/h 3.1mph /  5km/h 73% 0in /  0.00mm 0.00 W/m2 unknown
01:44 64.4 °F /  18.0 °C 55.4 °F /  13.0 °C 30.2in /  1021.7hPa WNW 1.2mph /  2km/h 3.1mph /  5km/h 75% 0in /  0.00mm 0.00 W/m2 unknown
01:49 62.6 °F /  17.0 °C 55.4 °F /  13.0 °C 30.2in /  1021.7hPa Calm   1.2mph /  2km/h 75% 0in /  0.00mm 0.00 W/m2 unknown
01:54 62.6 °F /  17.0 °C 55.4 °F /  13.0 °C 30.2in /  1021.7hPa Calm   1.2mph /  2km/h 76% 0in /  0.00mm 0.00 W/m2 unknown
01:59 62.6 °F /  17.0 °C 55.4 °F /  13.0 °C 30.2in /  1021.7hPa Calm     77% 0in /  0.00mm 0.00 W/m2 unknown
02:04 62.6 °F /  17.0 °C 53.6 °F /  12.0 °C 30.2in /  1021.7hPa Calm     77% 0in /  0.00mm 0.00 W/m2 unknown
02:09 60.8 °F /  16.0 °C 53.6 °F /  12.0 °C 30.2in /  1021.7hPa WNW 1.2mph /  2km/h 1.2mph /  2km/h 78% 0in /  0.00mm 0.00 W/m2 unknown
02:13 60.8 °F /  16.0 °C 53.6 °F /  12.0 °C 30.2in /  1021.7hPa Calm   1.2mph /  2km/h 77% 0in /  0.00mm 0.00 W/m2 unknown
02:19 60.8 °F /  16.0 °C 53.6 °F /  12.0 °C 30.2in /  1021.7hPa WNW 3.1mph /  5km/h 3.1mph /  5km/h 78% 0in /  0.00mm 0.00 W/m2 unknown
02:24 62.6 °F /  17.0 °C 53.6 °F /  12.0 °C 30.2in /  1021.7hPa WNW 3.1mph /  5km/h 3.1mph /  5km/h 77% 0in /  0.00mm 0.00 W/m2 unknown
02:29 62.6 °F /  17.0 °C 53.6 °F /  12.0 °C 30.2in /  1021.7hPa WNW 3.7mph /  6km/h 3.7mph /  6km/h 76% 0in /  0.00mm 0.00 W/m2 unknown
02:34 62.6 °F /  17.0 °C 55.4 °F /  13.0 °C 30.2in /  1021.3hPa Calm   3.7mph /  6km/h 76% 0in /  0.00mm 0.00 W/m2 unknown
02:38 62.6 °F /  17.0 °C 53.6 °F /  12.0 °C 30.2in /  1021.3hPa WNW 1.9mph /  3km/h 1.9mph /  3km/h 77% 0in /  0.00mm 0.00 W/m2 unknown
02:44 60.8 °F /  16.0 °C 53.6 °F /  12.0 °C 30.2in /  1021.3hPa WNW 3.1mph /  5km/h 3.1mph /  5km/h 78% 0in /  0.00mm 0.00 W/m2 unknown
02:49 60.8 °F /  16.0 °C 53.6 °F /  12.0 °C 30.2in /  1021.3hPa WNW 3.1mph /  5km/h 3.1mph /  5km/h 78% 0in /  0.00mm 0.00 W/m2 unknown
02:54 60.8 °F /  16.0 °C 53.6 °F /  12.0 °C 30.2in /  1021.3hPa WNW 3.1mph /  5km/h 3.1mph /  5km/h 78% 0in /  0.00mm 0.00 W/m2 unknown
02:59 60.8 °F /  16.0 °C 53.6 °F /  12.0 °C 30.2in /  1021.0hPa WNW 3.1mph /  5km/h 3.1mph /  5km/h 78% 0in /  0.00mm 0.00 W/m2 unknown
03:03 60.8 °F /  16.0 °C 53.6 °F /  12.0 °C 30.2in /  1021.0hPa West 3.1mph /  5km/h 3.1mph /  5km/h 78% 0in /  0.00mm 0.00 W/m2 unknown
03:09 60.8 °F /  16.0 °C 53.6 °F /  12.0 °C 30.2in /  1021.0hPa WNW 1.9mph /  3km/h 3.1mph /  5km/h 78% 0in /  0.00mm 0.00 W/m2 unknown
03:14 60.8 °F /  16.0 °C 53.6 °F /  12.0 °C 30.2in /  1021.0hPa Calm   3.1mph /  5km/h 79% 0in /  0.00mm 0.00 W/m2 unknown
03:19 60.8 °F /  16.0 °C 53.6 °F /  12.0 °C 30.2in /  1021.0hPa WNW 3.1mph /  5km/h 3.1mph /  5km/h 79% 0in /  0.00mm 0.00 W/m2 unknown
03:24 60.8 °F /  16.0 °C 53.6 °F /  12.0 °C 30.2in /  1021.0hPa WNW 3.1mph /  5km/h 3.7mph /  6km/h 79% 0in /  0.00mm 0.00 W/m2 unknown
03:29 60.8 °F /  16.0 °C 53.6 °F /  12.0 °C 30.2in /  1021.0hPa WNW 3.7mph /  6km/h 3.7mph /  6km/h 79% 0in /  0.00mm 0.00 W/m2 unknown
03:34 60.8 °F /  16.0 °C 53.6 °F /  12.0 °C 30.2in /  1021.0hPa WNW 3.7mph /  6km/h 3.7mph /  6km/h 79% 0in /  0.00mm 0.00 W/m2 unknown
03:39 60.8 °F /  16.0 °C 53.6 °F /  12.0 °C 30.2in /  1021.0hPa WNW 3.1mph /  5km/h 3.7mph /  6km/h 79% 0in /  0.00mm 0.00 W/m2 unknown
03:44 60.8 °F /  16.0 °C 53.6 °F /  12.0 °C 30.2in /  1021.0hPa WNW 5mph /  8km/h 5mph /  8km/h 79% 0in /  0.00mm 0.00 W/m2 unknown
03:49 60.8 °F /  16.0 °C 53.6 °F /  12.0 °C 30.2in /  1021.0hPa WNW 3.1mph /  5km/h 6.2mph /  10km/h 78% 0in /  0.00mm 0.00 W/m2 unknown
03:53 60.8 °F /  16.0 °C 53.6 °F /  12.0 °C 30.2in /  1021.0hPa WNW 3.1mph /  5km/h 6.2mph /  10km/h 77% 0in /  0.00mm 0.00 W/m2 unknown
03:59 60.8 °F /  16.0 °C 53.6 °F /  12.0 °C 30.2in /  1021.0hPa WNW 3.1mph /  5km/h 3.1mph /  5km/h 78% 0in /  0.00mm 0.00 W/m2 unknown
04:04 60.8 °F /  16.0 °C 53.6 °F /  12.0 °C 30.2in /  1021.0hPa WNW 3.1mph /  5km/h 3.1mph /  5km/h 78% 0in /  0.00mm 0.00 W/m2 unknown
04:09 60.8 °F /  16.0 °C 53.6 °F /  12.0 °C 30.2in /  1021.0hPa WNW 3.1mph /  5km/h 3.7mph /  6km/h 78% 0in /  0.00mm 0.00 W/m2 unknown
04:14 60.8 °F /  16.0 °C 53.6 °F /  12.0 °C 30.2in /  1021.0hPa Calm   3.1mph /  5km/h 78% 0in /  0.00mm 0.00 W/m2 unknown
04:19 60.8 °F /  16.0 °C 53.6 °F /  12.0 °C 30.1in /  1020.7hPa Calm   3.1mph /  5km/h 78% 0in /  0.00mm 0.00 W/m2 unknown
04:24 60.8 °F /  16.0 °C 53.6 °F /  12.0 °C 30.1in /  1020.7hPa Calm     79% 0in /  0.00mm 0.00 W/m2 unknown
04:29 59 °F /  15.0 °C 53.6 °F /  12.0 °C 30.1in /  1020.7hPa Calm     80% 0in /  0.00mm 0.00 W/m2 unknown
04:34 59 °F /  15.0 °C 53.6 °F /  12.0 °C 30.1in /  1020.7hPa WNW 3.7mph /  6km/h 3.7mph /  6km/h 80% 0in /  0.00mm 0.00 W/m2 unknown
04:39 59 °F /  15.0 °C 53.6 °F /  12.0 °C 30.1in /  1020.7hPa WNW 3.1mph /  5km/h 3.7mph /  6km/h 81% 0in /  0.00mm 0.00 W/m2 unknown
04:43 59 °F /  15.0 °C 53.6 °F /  12.0 °C 30.1in /  1020.7hPa WNW 3.1mph /  5km/h 3.7mph /  6km/h 80% 0in /  0.00mm 0.00 W/m2 unknown
04:49 59 °F /  15.0 °C 53.6 °F /  12.0 °C 30.1in /  1020.7hPa WNW 3.7mph /  6km/h 3.7mph /  6km/h 81% 0in /  0.00mm 0.00 W/m2 unknown
04:54 59 °F /  15.0 °C 53.6 °F /  12.0 °C 30.1in /  1020.7hPa WNW 3.1mph /  5km/h 3.7mph /  6km/h 80% 0in /  0.00mm 0.00 W/m2 unknown
04:59 59 °F /  15.0 °C 53.6 °F /  12.0 °C 30.1in /  1020.7hPa WNW 3.1mph /  5km/h 3.7mph /  6km/h 80% 0in /  0.00mm 0.00 W/m2 unknown
05:04 59 °F /  15.0 °C 53.6 °F /  12.0 °C 30.1in /  1020.7hPa WNW 3.7mph /  6km/h 3.7mph /  6km/h 80% 0in /  0.00mm 0.00 W/m2 unknown
05:09 59 °F /  15.0 °C 53.6 °F /  12.0 °C 30.1in /  1020.3hPa WNW 3.1mph /  5km/h 3.7mph /  6km/h 80% 0in /  0.00mm 0.00 W/m2 unknown
05:14 59 °F /  15.0 °C 53.6 °F /  12.0 °C 30.1in /  1020.3hPa WNW 3.1mph /  5km/h 3.7mph /  6km/h 80% 0in /  0.00mm 0.00 W/m2 unknown
05:19 59 °F /  15.0 °C 53.6 °F /  12.0 °C 30.1in /  1020.3hPa WNW 1.2mph /  2km/h 1.9mph /  3km/h 80% 0in /  0.00mm 0.00 W/m2 unknown
05:24 59 °F /  15.0 °C 53.6 °F /  12.0 °C 30.1in /  1020.3hPa Calm   3.1mph /  5km/h 81% 0in /  0.00mm 0.00 W/m2 unknown
05:29 59 °F /  15.0 °C 53.6 °F /  12.0 °C 30.1in /  1020.3hPa Calm   1.9mph /  3km/h 81% 0in /  0.00mm 0.00 W/m2 unknown
05:34 59 °F /  15.0 °C 53.6 °F /  12.0 °C 30.1in /  1020.3hPa Calm   1.2mph /  2km/h 81% 0in /  0.00mm 0.00 W/m2 unknown
05:39 59 °F /  15.0 °C 53.6 °F /  12.0 °C 30.1in /  1020.3hPa Calm     81% 0in /  0.00mm 0.00 W/m2 unknown
05:44 59 °F /  15.0 °C 53.6 °F /  12.0 °C 30.1in /  1020.3hPa Calm     81% 0in /  0.00mm 0.00 W/m2 unknown
05:49 59 °F /  15.0 °C 53.6 °F /  12.0 °C 30.1in /  1020.3hPa Calm     81% 0in /  0.00mm 0.00 W/m2 unknown
05:54 59 °F /  15.0 °C 53.6 °F /  12.0 °C 30.1in /  1020.3hPa Calm     82% 0in /  0.00mm 0.00 W/m2 unknown
05:58 59 °F /  15.0 °C 53.6 °F /  12.0 °C 30.1in /  1020.3hPa Calm     82% 0in /  0.00mm 0.00 W/m2 unknown
06:04 59 °F /  15.0 °C 53.6 °F /  12.0 °C 30.1in /  1020.3hPa Calm     82% 0in /  0.00mm 0.00 W/m2 unknown
06:14 59 °F /  15.0 °C 53.6 °F /  12.0 °C 30.1in /  1020.3hPa WNW 1.2mph /  2km/h 1.2mph /  2km/h 82% 0in /  0.00mm 0.00 W/m2 unknown
06:18 59 °F /  15.0 °C 53.6 °F /  12.0 °C 30.1in /  1020.3hPa WNW 1.9mph /  3km/h 1.9mph /  3km/h 82% 0in /  0.00mm 0.00 W/m2 unknown
06:24 59 °F /  15.0 °C 53.6 °F /  12.0 °C 30.1in /  1020.3hPa Calm   1.9mph /  3km/h 82% 0in /  0.00mm 0.00 W/m2 unknown
06:29 59 °F /  15.0 °C 53.6 °F /  12.0 °C 30.1in /  1020.3hPa Calm   1.9mph /  3km/h 81% 0in /  0.00mm 0.00 W/m2 unknown
06:34 59 °F /  15.0 °C 53.6 °F /  12.0 °C 30.1in /  1020.3hPa Calm     82% 0in /  0.00mm 0.00 W/m2 unknown
06:39 59 °F /  15.0 °C 53.6 °F /  12.0 °C 30.1in /  1020.3hPa Calm     82% 0in /  0.00mm 0.00 W/m2 unknown
06:44 59 °F /  15.0 °C 53.6 °F /  12.0 °C 30.1in /  1020.3hPa Calm     82% 0in /  0.00mm 0.00 W/m2 unknown
06:49 59 °F /  15.0 °C 53.6 °F /  12.0 °C 30.1in /  1020.3hPa Calm     81% 0in /  0.00mm 0.00 W/m2 unknown
06:53 59 °F /  15.0 °C 53.6 °F /  12.0 °C 30.1in /  1020.3hPa Calm     82% 0in /  0.00mm 0.00 W/m2 unknown
06:59 59 °F /  15.0 °C 53.6 °F /  12.0 °C 30.1in /  1020.3hPa Calm     82% 0in /  0.00mm 0.00 W/m2 unknown
07:04 59 °F /  15.0 °C 53.6 °F /  12.0 °C 30.1in /  1020.3hPa Calm     83% 0in /  0.00mm 0.00 W/m2 unknown
07:09 59 °F /  15.0 °C 53.6 °F /  12.0 °C 30.1in /  1020.3hPa Calm     83% 0in /  0.00mm 0.00 W/m2 unknown
07:14 59 °F /  15.0 °C 53.6 °F /  12.0 °C 30.1in /  1020.3hPa Calm     83% 0in /  0.00mm 0.00 W/m2 unknown
07:19 59 °F /  15.0 °C 53.6 °F /  12.0 °C 30.1in /  1020.3hPa Calm     83% 0in /  0.00mm 0.00 W/m2 unknown
07:24 59 °F /  15.0 °C 53.6 °F /  12.0 °C 30.1in /  1020.3hPa West 3.1mph /  5km/h 3.1mph /  5km/h 82% 0in /  0.00mm 0.00 W/m2 unknown
07:29 59 °F /  15.0 °C 53.6 °F /  12.0 °C 30.1in /  1020.3hPa WNW 1.9mph /  3km/h 3.1mph /  5km/h 82% 0in /  0.00mm 0.00 W/m2 unknown
07:34 59 °F /  15.0 °C 53.6 °F /  12.0 °C 30.1in /  1020.3hPa NW 1.2mph /  2km/h 3.1mph /  5km/h 82% 0in /  0.00mm 0.00 W/m2 unknown
07:39 59 °F /  15.0 °C 53.6 °F /  12.0 °C 30.1in /  1020.3hPa NW 1.9mph /  3km/h 1.9mph /  3km/h 82% 0in /  0.00mm 0.00 W/m2 unknown
07:44 60.8 °F /  16.0 °C 55.4 °F /  13.0 °C 30.1in /  1020.3hPa Calm     82% 0in /  0.00mm 0.00 W/m2 unknown
07:49 60.8 °F /  16.0 °C 55.4 °F /  13.0 °C 30.1in /  1020.3hPa Calm   1.9mph /  3km/h 81% 0in /  0.00mm 0.00 W/m2 unknown
07:54 62.6 °F /  17.0 °C 55.4 °F /  13.0 °C 30.1in /  1020.3hPa Calm     80% 0in /  0.00mm 0.00 W/m2 unknown
07:59 62.6 °F /  17.0 °C 55.4 °F /  13.0 °C 30.1in /  1020.3hPa Calm     79% 0in /  0.00mm 0.00 W/m2 unknown
08:04 62.6 °F /  17.0 °C 55.4 °F /  13.0 °C 30.1in /  1020.0hPa Calm     78% 0in /  0.00mm 0.00 W/m2 unknown
08:09 64.4 °F /  18.0 °C 55.4 °F /  13.0 °C 30.1in /  1020.0hPa Calm     76% 0in /  0.00mm 0.00 W/m2 unknown
08:14 64.4 °F /  18.0 °C 57.2 °F /  14.0 °C 30.1in /  1020.0hPa Calm     77% 0in /  0.00mm 0.00 W/m2 unknown
08:19 64.4 °F /  18.0 °C 57.2 °F /  14.0 °C 30.1in /  1020.0hPa Calm     77% 0in /  0.00mm 0.00 W/m2 unknown
08:24 66.2 °F /  19.0 °C 57.2 °F /  14.0 °C 30.1in /  1020.0hPa Calm     77% 0in /  0.00mm 0.00 W/m2 unknown
08:29 66.2 °F /  19.0 °C 59 °F /  15.0 °C 30.1in /  1020.0hPa Calm     74% 0in /  0.00mm 0.00 W/m2 unknown
08:34 68 °F /  20.0 °C 59 °F /  15.0 °C 30.1in /  1020.0hPa SW 1.9mph /  3km/h 1.9mph /  3km/h 74% 0in /  0.00mm 0.00 W/m2 unknown
08:39 69.8 °F /  21.0 °C 59 °F /  15.0 °C 30.1in /  1020.0hPa West 1.9mph /  3km/h 3.1mph /  5km/h 68% 0in /  0.00mm 0.00 W/m2 unknown
08:44 71.6 °F /  22.0 °C 60.8 °F /  16.0 °C 30.1in /  1020.0hPa Calm   3.1mph /  5km/h 68% 0in /  0.00mm 0.00 W/m2 unknown
08:48 71.6 °F /  22.0 °C 59 °F /  15.0 °C 30.1in /  1020.0hPa WSW 1.9mph /  3km/h 1.9mph /  3km/h 64% 0in /  0.00mm 0.00 W/m2 unknown
08:54 73.4 °F /  23.0 °C 57.2 °F /  14.0 °C 30.1in /  1020.0hPa West 6.8mph /  11km/h 6.8mph /  11km/h 60% 0in /  0.00mm 0.00 W/m2 unknown
08:59 73.4 °F /  23.0 °C 57.2 °F /  14.0 °C 30.1in /  1020.0hPa West 6.8mph /  11km/h 6.8mph /  11km/h 59% 0in /  0.00mm 0.00 W/m2 unknown
09:04 73.4 °F /  23.0 °C 57.2 °F /  14.0 °C 30.1in /  1020.0hPa West 6.8mph /  11km/h 8.1mph /  13km/h 58% 0in /  0.00mm 0.00 W/m2 unknown
09:09 73.4 °F /  23.0 °C 57.2 °F /  14.0 °C 30.1in /  1020.0hPa West 6.8mph /  11km/h 8.1mph /  13km/h 57% 0in /  0.00mm 0.00 W/m2 unknown
09:14 73.4 °F /  23.0 °C 57.2 °F /  14.0 °C 30.1in /  1020.0hPa West 6.8mph /  11km/h 6.8mph /  11km/h 56% 0in /  0.00mm 0.00 W/m2 unknown
09:19 75.2 °F /  24.0 °C 57.2 °F /  14.0 °C 30.1in /  1020.0hPa West 6.8mph /  11km/h 8.1mph /  13km/h 54% 0in /  0.00mm 0.00 W/m2 unknown
09:24 75.2 °F /  24.0 °C 57.2 °F /  14.0 °C 30.1in /  1020.0hPa West 6.8mph /  11km/h 8.1mph /  13km/h 53% 0in /  0.00mm 0.00 W/m2 unknown
09:29 75.2 °F /  24.0 °C 57.2 °F /  14.0 °C 30.1in /  1020.0hPa WSW 3.7mph /  6km/h 6.8mph /  11km/h 52% 0in /  0.00mm 0.00 W/m2 unknown
09:34 77 °F /  25.0 °C 57.2 °F /  14.0 °C 30.1in /  1020.0hPa WNW 6.2mph /  10km/h 6.8mph /  11km/h 51% 0in /  0.00mm 0.00 W/m2 unknown
09:39 77 °F /  25.0 °C 57.2 °F /  14.0 °C 30.1in /  1020.0hPa West 3.7mph /  6km/h 6.2mph /  10km/h 50% 0in /  0.00mm 0.00 W/m2 unknown
09:44 77 °F /  25.0 °C 57.2 °F /  14.0 °C 30.1in /  1020.0hPa WSW 5mph /  8km/h 5mph /  8km/h 49% 0in /  0.00mm 0.00 W/m2 unknown
09:49 77 °F /  25.0 °C 57.2 °F /  14.0 °C 30.1in /  1020.0hPa West 6.2mph /  10km/h 6.2mph /  10km/h 49% 0in /  0.00mm 0.00 W/m2 unknown
09:53 77 °F /  25.0 °C 55.4 °F /  13.0 °C 30.1in /  1020.0hPa WNW 6.2mph /  10km/h 8.1mph /  13km/h 47% 0in /  0.00mm 0.00 W/m2 unknown
09:59 78.8 °F /  26.0 °C 57.2 °F /  14.0 °C 30.1in /  1020.0hPa NW 6.2mph /  10km/h 6.8mph /  11km/h 48% 0in /  0.00mm 0.00 W/m2 unknown
10:04 78.8 °F /  26.0 °C 57.2 °F /  14.0 °C 30.1in /  1020.0hPa South 1.9mph /  3km/h 6.8mph /  11km/h 48% 0in /  0.00mm 0.00 W/m2 unknown
10:08 78.8 °F /  26.0 °C 57.2 °F /  14.0 °C 30.1in /  1020.0hPa WNW 5mph /  8km/h 5mph /  8km/h 47% 0in /  0.00mm 0.00 W/m2 unknown
10:14 78.8 °F /  26.0 °C 55.4 °F /  13.0 °C 30.1in /  1020.0hPa NW 6.2mph /  10km/h 6.2mph /  10km/h 45% 0in /  0.00mm 0.00 W/m2 unknown
10:19 78.8 °F /  26.0 °C 57.2 °F /  14.0 °C 30.1in /  1020.0hPa WNW 8.1mph /  13km/h 8.1mph /  13km/h 49% 0in /  0.00mm 0.00 W/m2 unknown
10:24 78.8 °F /  26.0 °C 59 °F /  15.0 °C 30.1in /  1020.3hPa ENE 8.1mph /  13km/h 8.7mph /  14km/h 51% 0in /  0.00mm 0.00 W/m2 unknown
10:29 78.8 °F /  26.0 °C 59 °F /  15.0 °C 30.1in /  1020.0hPa East 3.7mph /  6km/h 8.7mph /  14km/h 51% 0in /  0.00mm 0.00 W/m2 unknown
10:34 78.8 °F /  26.0 °C 59 °F /  15.0 °C 30.1in /  1020.0hPa SSE 6.8mph /  11km/h 6.8mph /  11km/h 51% 0in /  0.00mm 0.00 W/m2 unknown
10:39 78.8 °F /  26.0 °C 59 °F /  15.0 °C 30.1in /  1020.0hPa East 6.2mph /  10km/h 6.8mph /  11km/h 50% 0in /  0.00mm 0.00 W/m2 unknown
10:43 78.8 °F /  26.0 °C 59 °F /  15.0 °C 30.1in /  1020.0hPa ESE 5mph /  8km/h 6.8mph /  11km/h 51% 0in /  0.00mm 0.00 W/m2 unknown
10:49 78.8 °F /  26.0 °C 59 °F /  15.0 °C 30.1in /  1020.0hPa ENE 9.9mph /  16km/h 9.9mph /  16km/h 49% 0in /  0.00mm 0.00 W/m2 unknown
10:54 78.8 °F /  26.0 °C 59 °F /  15.0 °C 30.1in /  1020.0hPa East 6.2mph /  10km/h 9.9mph /  16km/h 49% 0in /  0.00mm 0.00 W/m2 unknown
10:59 78.8 °F /  26.0 °C 59 °F /  15.0 °C 30.1in /  1020.0hPa SE 5mph /  8km/h 9.9mph /  16km/h 50% 0in /  0.00mm 0.00 W/m2 unknown
11:04 78.8 °F /  26.0 °C 59 °F /  15.0 °C 30.1in /  1020.0hPa NW 5mph /  8km/h 6.8mph /  11km/h 49% 0in /  0.00mm 0.00 W/m2 unknown
11:08 78.8 °F /  26.0 °C 59 °F /  15.0 °C 30.1in /  1020.0hPa SSW 6.8mph /  11km/h 6.8mph /  11km/h 50% 0in /  0.00mm 0.00 W/m2 unknown
11:14 80.6 °F /  27.0 °C 57.2 °F /  14.0 °C 30.1in /  1020.0hPa South 6.2mph /  10km/h 8.7mph /  14km/h 47% 0in /  0.00mm 0.00 W/m2 unknown
11:19 80.6 °F /  27.0 °C 59 °F /  15.0 °C 30.1in /  1020.0hPa South 5mph /  8km/h 8.7mph /  14km/h 48% 0in /  0.00mm 0.00 W/m2 unknown
11:24 80.6 °F /  27.0 °C 59 °F /  15.0 °C 30.1in /  1020.0hPa South 3.7mph /  6km/h 6.8mph /  11km/h 47% 0in /  0.00mm 0.00 W/m2 unknown
11:29 80.6 °F /  27.0 °C 59 °F /  15.0 °C 30.1in /  1020.0hPa South 3.1mph /  5km/h 5mph /  8km/h 46% 0in /  0.00mm 0.00 W/m2 unknown
11:34 82.4 °F /  28.0 °C 59 °F /  15.0 °C 30.1in /  1020.0hPa ESE 8.7mph /  14km/h 8.7mph /  14km/h 46% 0in /  0.00mm 0.00 W/m2 unknown
11:39 82.4 °F /  28.0 °C 59 °F /  15.0 °C 30.1in /  1020.0hPa ESE 13mph /  21km/h 13mph /  21km/h 47% 0in /  0.00mm 0.00 W/m2 unknown
11:44 80.6 °F /  27.0 °C 59 °F /  15.0 °C 30.1in /  1020.0hPa SE 6.8mph /  11km/h 13mph /  21km/h 47% 0in /  0.00mm 0.00 W/m2 unknown
11:49 80.6 °F /  27.0 °C 59 °F /  15.0 °C 30.1in /  1020.0hPa ESE 6.8mph /  11km/h 8.1mph /  13km/h 46% 0in /  0.00mm 0.00 W/m2 unknown
11:54 80.6 °F /  27.0 °C 57.2 °F /  14.0 °C 30.1in /  1020.0hPa ESE 6.2mph /  10km/h 8.1mph /  13km/h 45% 0in /  0.00mm 0.00 W/m2 unknown
11:59 80.6 °F /  27.0 °C 57.2 °F /  14.0 °C 30.1in /  1019.6hPa SW 1.9mph /  3km/h 6.8mph /  11km/h 44% 0in /  0.00mm 0.00 W/m2 unknown
12:04 80.6 °F /  27.0 °C 59 °F /  15.0 °C 30.1in /  1019.6hPa SE 8.1mph /  13km/h 8.1mph /  13km/h 48% 0in /  0.00mm 0.00 W/m2 unknown
12:05 80.6 °F /  27.0 °C 59 °F /  15.0 °C 30.1in /  1019.6hPa SSE 6.2mph /  10km/h 8.1mph /  13km/h 48% 0in /  0.00mm 0.00 W/m2 unknown
12:14 80.6 °F /  27.0 °C 60.8 °F /  16.0 °C 30.1in /  1019.6hPa ESE 8.7mph /  14km/h 8.7mph /  14km/h 50% 0in /  0.00mm 0.00 W/m2 unknown
12:19 80.6 °F /  27.0 °C 60.8 °F /  16.0 °C 30.1in /  1020.0hPa ESE 8.1mph /  13km/h 11.2mph /  18km/h 51% 0in /  0.00mm 0.00 W/m2 unknown
12:24 80.6 °F /  27.0 °C 60.8 °F /  16.0 °C 30.1in /  1019.6hPa ESE 8.1mph /  13km/h 8.7mph /  14km/h 53% 0in /  0.00mm 0.00 W/m2 unknown
12:29 78.8 °F /  26.0 °C 60.8 °F /  16.0 °C 30.1in /  1019.6hPa ESE 8.7mph /  14km/h 8.7mph /  14km/h 54% 0in /  0.00mm 0.00 W/m2 unknown
12:34 78.8 °F /  26.0 °C 60.8 °F /  16.0 °C 30.1in /  1019.6hPa ESE 9.9mph /  16km/h 9.9mph /  16km/h 54% 0in /  0.00mm 0.00 W/m2 unknown
12:39 77 °F /  25.0 °C 60.8 °F /  16.0 °C 30.1in /  1019.6hPa East 8.7mph /  14km/h 9.9mph /  16km/h 54% 0in /  0.00mm 0.00 W/m2 unknown
12:44 77 °F /  25.0 °C 60.8 °F /  16.0 °C 30.1in /  1019.6hPa ENE 9.9mph /  16km/h 9.9mph /  16km/h 55% 0in /  0.00mm 0.00 W/m2 unknown
12:49 77 °F /  25.0 °C 60.8 °F /  16.0 °C 30.1in /  1019.6hPa ENE 8.7mph /  14km/h 9.9mph /  16km/h 56% 0in /  0.00mm 0.00 W/m2 unknown
12:53 77 °F /  25.0 °C 60.8 °F /  16.0 °C 30.1in /  1019.6hPa ENE 6.2mph /  10km/h 9.9mph /  16km/h 55% 0in /  0.00mm 0.00 W/m2 unknown
12:59 78.8 °F /  26.0 °C 60.8 °F /  16.0 °C 30.1in /  1019.6hPa ENE 6.2mph /  10km/h 6.8mph /  11km/h 56% 0in /  0.00mm 0.00 W/m2 unknown
13:04 78.8 °F /  26.0 °C 60.8 °F /  16.0 °C 30.1in /  1019.6hPa East 8.1mph /  13km/h 8.1mph /  13km/h 56% 0in /  0.00mm 0.00 W/m2 unknown
13:09 78.8 °F /  26.0 °C 60.8 °F /  16.0 °C 30.1in /  1019.6hPa East 6.2mph /  10km/h 8.1mph /  13km/h 55% 0in /  0.00mm 0.00 W/m2 unknown
13:14 78.8 °F /  26.0 °C 60.8 °F /  16.0 °C 30.1in /  1019.6hPa ENE 5mph /  8km/h 8.1mph /  13km/h 54% 0in /  0.00mm 0.00 W/m2 unknown
13:19 78.8 °F /  26.0 °C 60.8 °F /  16.0 °C 30.1in /  1019.3hPa East 6.8mph /  11km/h 6.8mph /  11km/h 55% 0in /  0.00mm 0.00 W/m2 unknown
13:24 78.8 °F /  26.0 °C 60.8 °F /  16.0 °C 30.1in /  1019.6hPa East 8.1mph /  13km/h 8.7mph /  14km/h 54% 0in /  0.00mm 0.00 W/m2 unknown
13:29 78.8 °F /  26.0 °C 60.8 °F /  16.0 °C 30.1in /  1019.3hPa ESE 11.2mph /  18km/h 11.2mph /  18km/h 55% 0in /  0.00mm 0.00 W/m2 unknown
13:33 77 °F /  25.0 °C 60.8 °F /  16.0 °C 30.1in /  1019.3hPa ESE 13mph /  21km/h 13mph /  21km/h 55% 0in /  0.00mm 0.00 W/m2 unknown
13:39 78.8 °F /  26.0 °C 60.8 °F /  16.0 °C 30.1in /  1019.3hPa ESE 8.7mph /  14km/h 13mph /  21km/h 56% 0in /  0.00mm 0.00 W/m2 unknown
13:44 78.8 °F /  26.0 °C 60.8 °F /  16.0 °C 30.1in /  1019.3hPa ESE 8.1mph /  13km/h 13mph /  21km/h 55% 0in /  0.00mm 0.00 W/m2 unknown
13:49 78.8 °F /  26.0 °C 60.8 °F /  16.0 °C 30.1in /  1019.3hPa East 8.1mph /  13km/h 11.2mph /  18km/h 54% 0in /  0.00mm 0.00 W/m2 unknown
13:54 78.8 °F /  26.0 °C 60.8 °F /  16.0 °C 30.1in /  1019.3hPa ESE 6.8mph /  11km/h 9.9mph /  16km/h 54% 0in /  0.00mm 0.00 W/m2 unknown
13:59 78.8 °F /  26.0 °C 60.8 °F /  16.0 °C 30.1in /  1019.3hPa East 5mph /  8km/h 8.7mph /  14km/h 55% 0in /  0.00mm 0.00 W/m2 unknown
14:04 78.8 °F /  26.0 °C 60.8 °F /  16.0 °C 30.1in /  1019.3hPa East 6.8mph /  11km/h 6.8mph /  11km/h 54% 0in /  0.00mm 0.00 W/m2 unknown
14:09 78.8 °F /  26.0 °C 60.8 °F /  16.0 °C 30.1in /  1019.3hPa East 8.7mph /  14km/h 8.7mph /  14km/h 55% 0in /  0.00mm 0.00 W/m2 unknown
14:14 78.8 °F /  26.0 °C 60.8 °F /  16.0 °C 30.1in /  1019.3hPa ESE 6.2mph /  10km/h 8.7mph /  14km/h 56% 0in /  0.00mm 0.00 W/m2 unknown
14:19 78.8 °F /  26.0 °C 62.6 °F /  17.0 °C 30.1in /  1019.3hPa East 8.7mph /  14km/h 8.7mph /  14km/h 57% 0in /  0.00mm 0.00 W/m2 unknown
14:24 78.8 °F /  26.0 °C 62.6 °F /  17.0 °C 30.1in /  1019.0hPa East 8.7mph /  14km/h 8.7mph /  14km/h 58% 0in /  0.00mm 0.00 W/m2 unknown
14:29 77 °F /  25.0 °C 62.6 °F /  17.0 °C 30.1in /  1019.0hPa ENE 8.7mph /  14km/h 8.7mph /  14km/h 58% 0in /  0.00mm 0.00 W/m2 unknown
14:33 77 °F /  25.0 °C 60.8 °F /  16.0 °C 30.1in /  1019.0hPa ESE 9.9mph /  16km/h 9.9mph /  16km/h 56% 0in /  0.00mm 0.00 W/m2 unknown
14:39 78.8 °F /  26.0 °C 60.8 °F /  16.0 °C 30.1in /  1019.0hPa East 6.2mph /  10km/h 9.9mph /  16km/h 56% 0in /  0.00mm 0.00 W/m2 unknown
14:44 78.8 °F /  26.0 °C 60.8 °F /  16.0 °C 30.1in /  1019.0hPa SE 8.7mph /  14km/h 9.9mph /  16km/h 56% 0in /  0.00mm 0.00 W/m2 unknown
14:49 78.8 °F /  26.0 °C 60.8 °F /  16.0 °C 30.1in /  1019.0hPa ESE 6.8mph /  11km/h 8.7mph /  14km/h 55% 0in /  0.00mm 0.00 W/m2 unknown
14:54 78.8 °F /  26.0 °C 60.8 °F /  16.0 °C 30.1in /  1019.0hPa East 8.7mph /  14km/h 11.2mph /  18km/h 54% 0in /  0.00mm 0.00 W/m2 unknown
14:59 78.8 °F /  26.0 °C 60.8 °F /  16.0 °C 30.1in /  1019.0hPa ESE 8.7mph /  14km/h 8.7mph /  14km/h 55% 0in /  0.00mm 0.00 W/m2 unknown
15:04 78.8 °F /  26.0 °C 60.8 °F /  16.0 °C 30.1in /  1019.0hPa East 6.8mph /  11km/h 9.9mph /  16km/h 55% 0in /  0.00mm 0.00 W/m2 unknown
15:09 78.8 °F /  26.0 °C 60.8 °F /  16.0 °C 30.1in /  1019.0hPa ESE 6.2mph /  10km/h 6.8mph /  11km/h 54% 0in /  0.00mm 0.00 W/m2 unknown
15:14 78.8 °F /  26.0 °C 59 °F /  15.0 °C 30.1in /  1019.0hPa ESE 6.2mph /  10km/h 6.8mph /  11km/h 53% 0in /  0.00mm 0.00 W/m2 unknown
15:19 78.8 °F /  26.0 °C 60.8 °F /  16.0 °C 30.1in /  1019.0hPa ESE 3.7mph /  6km/h 8.7mph /  14km/h 54% 0in /  0.00mm 0.00 W/m2 unknown
15:24 78.8 °F /  26.0 °C 60.8 °F /  16.0 °C 30.1in /  1019.0hPa East 6.2mph /  10km/h 6.2mph /  10km/h 55% 0in /  0.00mm 0.00 W/m2 unknown
15:29 78.8 °F /  26.0 °C 60.8 °F /  16.0 °C 30.1in /  1018.6hPa ESE 6.2mph /  10km/h 6.2mph /  10km/h 55% 0in /  0.00mm 0.00 W/m2 unknown
15:34 78.8 °F /  26.0 °C 60.8 °F /  16.0 °C 30.1in /  1018.6hPa East 6.2mph /  10km/h 6.2mph /  10km/h 55% 0in /  0.00mm 0.00 W/m2 unknown
15:39 78.8 °F /  26.0 °C 60.8 °F /  16.0 °C 30.1in /  1019.0hPa ENE 6.8mph /  11km/h 6.8mph /  11km/h 55% 0in /  0.00mm 0.00 W/m2 unknown
15:44 78.8 °F /  26.0 °C 60.8 °F /  16.0 °C 30.1in /  1018.6hPa ENE 6.8mph /  11km/h 6.8mph /  11km/h 55% 0in /  0.00mm 0.00 W/m2 unknown
15:49 78.8 °F /  26.0 °C 60.8 °F /  16.0 °C 30.1in /  1018.6hPa East 8.1mph /  13km/h 8.7mph /  14km/h 55% 0in /  0.00mm 0.00 W/m2 unknown
15:54 78.8 °F /  26.0 °C 60.8 °F /  16.0 °C 30.1in /  1018.6hPa East 6.2mph /  10km/h 6.2mph /  10km/h 55% 0in /  0.00mm 0.00 W/m2 unknown
15:59 78.8 °F /  26.0 °C 60.8 °F /  16.0 °C 30.1in /  1018.6hPa ESE 8.7mph /  14km/h 8.7mph /  14km/h 56% 0in /  0.00mm 0.00 W/m2 unknown
16:04 78.8 °F /  26.0 °C 60.8 °F /  16.0 °C 30.1in /  1018.6hPa ESE 6.8mph /  11km/h 8.7mph /  14km/h 56% 0in /  0.00mm 0.00 W/m2 unknown
16:09 78.8 °F /  26.0 °C 62.6 °F /  17.0 °C 30.1in /  1018.6hPa East 6.8mph /  11km/h 8.1mph /  13km/h 57% 0in /  0.00mm 0.00 W/m2 unknown
16:14 78.8 °F /  26.0 °C 62.6 °F /  17.0 °C 30.1in /  1018.6hPa East 8.7mph /  14km/h 8.7mph /  14km/h 57% 0in /  0.00mm 0.00 W/m2 unknown
16:19 78.8 °F /  26.0 °C 62.6 °F /  17.0 °C 30.1in /  1018.6hPa ESE 8.1mph /  13km/h 8.7mph /  14km/h 56% 0in /  0.00mm 0.00 W/m2 unknown
16:23 78.8 °F /  26.0 °C 62.6 °F /  17.0 °C 30.1in /  1018.3hPa ESE 9.9mph /  16km/h 9.9mph /  16km/h 57% 0in /  0.00mm 0.00 W/m2 unknown
16:29 78.8 °F /  26.0 °C 62.6 °F /  17.0 °C 30.1in /  1018.6hPa SE 8.7mph /  14km/h 9.9mph /  16km/h 58% 0in /  0.00mm 0.00 W/m2 unknown
16:34 78.8 °F /  26.0 °C 62.6 °F /  17.0 °C 30.1in /  1018.3hPa SE 8.1mph /  13km/h 9.9mph /  16km/h 59% 0in /  0.00mm 0.00 W/m2 unknown
16:39 78.8 °F /  26.0 °C 62.6 °F /  17.0 °C 30.1in /  1018.3hPa SSE 6.2mph /  10km/h 8.7mph /  14km/h 59% 0in /  0.00mm 0.00 W/m2 unknown
16:44 78.8 °F /  26.0 °C 62.6 °F /  17.0 °C 30.1in /  1018.3hPa SE 5mph /  8km/h 6.8mph /  11km/h 58% 0in /  0.00mm 0.00 W/m2 unknown
16:49 78.8 °F /  26.0 °C 62.6 °F /  17.0 °C 30.1in /  1018.3hPa South 8.7mph /  14km/h 8.7mph /  14km/h 59% 0in /  0.00mm 0.00 W/m2 unknown
16:54 78.8 °F /  26.0 °C 62.6 °F /  17.0 °C 30.1in /  1018.3hPa SSE 8.1mph /  13km/h 8.7mph /  14km/h 57% 0in /  0.00mm 0.00 W/m2 unknown
16:59 78.8 °F /  26.0 °C 62.6 °F /  17.0 °C 30.1in /  1018.3hPa SE 3.7mph /  6km/h 8.7mph /  14km/h 57% 0in /  0.00mm 0.00 W/m2 unknown
17:04 78.8 °F /  26.0 °C 62.6 °F /  17.0 °C 30.1in /  1018.3hPa SSE 6.2mph /  10km/h 6.8mph /  11km/h 57% 0in /  0.00mm 0.00 W/m2 unknown
17:09 78.8 °F /  26.0 °C 60.8 °F /  16.0 °C 30.1in /  1018.3hPa SSE 5mph /  8km/h 6.2mph /  10km/h 55% 0in /  0.00mm 0.00 W/m2 unknown
17:14 78.8 °F /  26.0 °C 60.8 °F /  16.0 °C 30.1in /  1018.0hPa South 5mph /  8km/h 6.8mph /  11km/h 55% 0in /  0.00mm 0.00 W/m2 unknown
17:19 78.8 °F /  26.0 °C 60.8 °F /  16.0 °C 30.1in /  1018.0hPa South 3.1mph /  5km/h 6.8mph /  11km/h 55% 0in /  0.00mm 0.00 W/m2 unknown
17:24 78.8 °F /  26.0 °C 60.8 °F /  16.0 °C 30.1in /  1018.0hPa SW 3.1mph /  5km/h 5mph /  8km/h 54% 0in /  0.00mm 0.00 W/m2 unknown
17:29 78.8 °F /  26.0 °C 60.8 °F /  16.0 °C 30.1in /  1018.0hPa SSW 6.8mph /  11km/h 6.8mph /  11km/h 54% 0in /  0.00mm 0.00 W/m2 unknown
17:34 78.8 °F /  26.0 °C 60.8 °F /  16.0 °C 30.1in /  1018.0hPa SSW 6.8mph /  11km/h 8.1mph /  13km/h 54% 0in /  0.00mm 0.00 W/m2 unknown
17:39 78.8 °F /  26.0 °C 60.8 °F /  16.0 °C 30.1in /  1018.0hPa South 3.7mph /  6km/h 8.7mph /  14km/h 52% 0in /  0.00mm 0.00 W/m2 unknown
17:44 78.8 °F /  26.0 °C 60.8 °F /  16.0 °C 30.1in /  1018.0hPa South 6.2mph /  10km/h 8.7mph /  14km/h 52% 0in /  0.00mm 0.00 W/m2 unknown
17:49 78.8 °F /  26.0 °C 60.8 °F /  16.0 °C 30.1in /  1017.6hPa SSE 6.8mph /  11km/h 6.8mph /  11km/h 53% 0in /  0.00mm 0.00 W/m2 unknown
17:54 78.8 °F /  26.0 °C 60.8 °F /  16.0 °C 30.1in /  1017.6hPa SSW 5mph /  8km/h 6.8mph /  11km/h 53% 0in /  0.00mm 0.00 W/m2 unknown
17:58 78.8 °F /  26.0 °C 59 °F /  15.0 °C 30.1in /  1017.6hPa SW 1.9mph /  3km/h 6.8mph /  11km/h 52% 0in /  0.00mm 0.00 W/m2 unknown
18:04 78.8 °F /  26.0 °C 59 °F /  15.0 °C 30.1in /  1017.6hPa SSE 3.7mph /  6km/h 6.8mph /  11km/h 51% 0in /  0.00mm 0.00 W/m2 unknown
18:05 78.8 °F /  26.0 °C 59 °F /  15.0 °C 30.1in /  1017.6hPa SE 3.1mph /  5km/h 3.7mph /  6km/h 51% 0in /  0.00mm 0.00 W/m2 unknown
18:14 78.8 °F /  26.0 °C 59 °F /  15.0 °C 30.1in /  1017.6hPa SW 3.7mph /  6km/h 3.7mph /  6km/h 50% 0in /  0.00mm 0.00 W/m2 unknown
18:19 78.8 °F /  26.0 °C 59 °F /  15.0 °C 30.1in /  1017.6hPa SSW 5mph /  8km/h 5mph /  8km/h 50% 0in /  0.00mm 0.00 W/m2 unknown
18:24 78.8 °F /  26.0 °C 57.2 °F /  14.0 °C 30.1in /  1017.6hPa SW 1.9mph /  3km/h 5mph /  8km/h 47% 0in /  0.00mm 0.00 W/m2 unknown
18:29 78.8 °F /  26.0 °C 57.2 °F /  14.0 °C 30.1in /  1017.6hPa SSW 5mph /  8km/h 5mph /  8km/h 47% 0in /  0.00mm 0.00 W/m2 unknown
18:34 78.8 °F /  26.0 °C 57.2 °F /  14.0 °C 30.1in /  1017.6hPa SW 3.1mph /  5km/h 5mph /  8km/h 47% 0in /  0.00mm 0.00 W/m2 unknown
18:39 78.8 °F /  26.0 °C 57.2 °F /  14.0 °C 30.1in /  1017.6hPa SW 5mph /  8km/h 5mph /  8km/h 48% 0in /  0.00mm 0.00 W/m2 unknown
18:44 78.8 °F /  26.0 °C 57.2 °F /  14.0 °C 30.1in /  1017.6hPa SW 3.1mph /  5km/h 5mph /  8km/h 48% 0in /  0.00mm 0.00 W/m2 unknown
18:49 80.6 °F /  27.0 °C 57.2 °F /  14.0 °C 30.1in /  1017.6hPa SSW 3.7mph /  6km/h 5mph /  8km/h 47% 0in /  0.00mm 0.00 W/m2 unknown
18:54 80.6 °F /  27.0 °C 57.2 °F /  14.0 °C 30.1in /  1017.6hPa SSW 3.1mph /  5km/h 3.7mph /  6km/h 47% 0in /  0.00mm 0.00 W/m2 unknown
18:59 78.8 °F /  26.0 °C 59 °F /  15.0 °C 30.1in /  1017.6hPa South 3.1mph /  5km/h 3.7mph /  6km/h 48% 0in /  0.00mm 0.00 W/m2 unknown
19:04 78.8 °F /  26.0 °C 59 °F /  15.0 °C 30.1in /  1017.6hPa ESE 5mph /  8km/h 5mph /  8km/h 49% 0in /  0.00mm 0.00 W/m2 unknown
19:09 78.8 °F /  26.0 °C 60.8 °F /  16.0 °C 30.1in /  1017.6hPa ENE 8.7mph /  14km/h 8.7mph /  14km/h 55% 0in /  0.00mm 0.00 W/m2 unknown
19:14 78.8 °F /  26.0 °C 60.8 °F /  16.0 °C 30.1in /  1017.6hPa ENE 6.8mph /  11km/h 8.7mph /  14km/h 56% 0in /  0.00mm 0.00 W/m2 unknown
19:18 77 °F /  25.0 °C 60.8 °F /  16.0 °C 30.1in /  1017.6hPa NE 9.9mph /  16km/h 9.9mph /  16km/h 57% 0in /  0.00mm 0.00 W/m2 unknown
19:24 77 °F /  25.0 °C 60.8 °F /  16.0 °C 30.1in /  1017.6hPa NNE 6.8mph /  11km/h 9.9mph /  16km/h 57% 0in /  0.00mm 0.00 W/m2 unknown
19:29 77 °F /  25.0 °C 60.8 °F /  16.0 °C 30.1in /  1017.6hPa NE 6.2mph /  10km/h 9.9mph /  16km/h 57% 0in /  0.00mm 0.00 W/m2 unknown
19:34 77 °F /  25.0 °C 60.8 °F /  16.0 °C 30.1in /  1018.0hPa ENE 3.7mph /  6km/h 8.1mph /  13km/h 57% 0in /  0.00mm 0.00 W/m2 unknown
19:39 77 °F /  25.0 °C 60.8 °F /  16.0 °C 30.1in /  1018.0hPa NNE 8.7mph /  14km/h 8.7mph /  14km/h 57% 0in /  0.00mm 0.00 W/m2 unknown
19:44 77 °F /  25.0 °C 59 °F /  15.0 °C 30.1in /  1018.0hPa NNW 11.8mph /  19km/h 11.8mph /  19km/h 54% 0in /  0.00mm 0.00 W/m2 unknown
19:49 77 °F /  25.0 °C 59 °F /  15.0 °C 30.1in /  1018.0hPa NNW 11.8mph /  19km/h 11.8mph /  19km/h 54% 0in /  0.00mm 0.00 W/m2 unknown
19:54 77 °F /  25.0 °C 59 °F /  15.0 °C 30.1in /  1018.0hPa North 9.9mph /  16km/h 11.8mph /  19km/h 54% 0in /  0.00mm 0.00 W/m2 unknown
19:59 77 °F /  25.0 °C 59 °F /  15.0 °C 30.1in /  1018.0hPa North 11.2mph /  18km/h 11.8mph /  19km/h 55% 0in /  0.00mm 0.00 W/m2 unknown
20:04 77 °F /  25.0 °C 59 °F /  15.0 °C 30.1in /  1018.0hPa North 11.2mph /  18km/h 11.2mph /  18km/h 55% 0in /  0.00mm 0.00 W/m2 unknown
20:09 77 °F /  25.0 °C 59 °F /  15.0 °C 30.1in /  1018.0hPa North 13mph /  21km/h 13mph /  21km/h 55% 0in /  0.00mm 0.00 W/m2 unknown
20:14 75.2 °F /  24.0 °C 59 °F /  15.0 °C 30.1in /  1018.0hPa North 14.9mph /  24km/h 14.9mph /  24km/h 55% 0in /  0.00mm 0.00 W/m2 unknown
20:19 75.2 °F /  24.0 °C 59 °F /  15.0 °C 30.1in /  1018.0hPa North 16.2mph /  26km/h 16.2mph /  26km/h 56% 0in /  0.00mm 0.00 W/m2 unknown
20:24 75.2 °F /  24.0 °C 59 °F /  15.0 °C 30.1in /  1018.0hPa North 18mph /  29km/h 18mph /  29km/h 56% 0in /  0.00mm 0.00 W/m2 unknown
20:29 75.2 °F /  24.0 °C 57.2 °F /  14.0 °C 30.1in /  1018.3hPa NNW 13mph /  21km/h 18mph /  29km/h 56% 0in /  0.00mm 0.00 W/m2 unknown
20:34 75.2 °F /  24.0 °C 57.2 °F /  14.0 °C 30.1in /  1018.3hPa North 14.9mph /  24km/h 18mph /  29km/h 56% 0in /  0.00mm 0.00 W/m2 unknown
20:39 75.2 °F /  24.0 °C 57.2 °F /  14.0 °C 30.1in /  1018.0hPa North 18mph /  29km/h 18mph /  29km/h 56% 0in /  0.00mm 0.00 W/m2 unknown
20:44 73.4 °F /  23.0 °C 57.2 °F /  14.0 °C 30.1in /  1018.3hPa North 11.8mph /  19km/h 18mph /  29km/h 57% 0in /  0.00mm 0.00 W/m2 unknown
20:49 73.4 °F /  23.0 °C 57.2 °F /  14.0 °C 30.1in /  1018.3hPa North 14.3mph /  23km/h 18mph /  29km/h 57% 0in /  0.00mm 0.00 W/m2 unknown
20:53 73.4 °F /  23.0 °C 57.2 °F /  14.0 °C 30.1in /  1018.0hPa North 13mph /  21km/h 16.2mph /  26km/h 57% 0in /  0.00mm 0.00 W/m2 unknown
20:59 73.4 °F /  23.0 °C 57.2 °F /  14.0 °C 30.1in /  1018.0hPa North 11.2mph /  18km/h 14.9mph /  24km/h 57% 0in /  0.00mm 0.00 W/m2 unknown
21:04 73.4 °F /  23.0 °C 57.2 °F /  14.0 °C 30.1in /  1018.3hPa NNW 8.7mph /  14km/h 11.8mph /  19km/h 57% 0in /  0.00mm 0.00 W/m2 unknown
21:09 73.4 °F /  23.0 °C 57.2 °F /  14.0 °C 30.1in /  1018.3hPa North 8.1mph /  13km/h 11.8mph /  19km/h 57% 0in /  0.00mm 0.00 W/m2 unknown
21:13 73.4 °F /  23.0 °C 57.2 °F /  14.0 °C 30.1in /  1018.3hPa WNW 13mph /  21km/h 14.3mph /  23km/h 56% 0in /  0.00mm 0.00 W/m2 unknown
21:19 73.4 °F /  23.0 °C 57.2 °F /  14.0 °C 30.1in /  1018.3hPa NW 8.7mph /  14km/h 14.3mph /  23km/h 57% 0in /  0.00mm 0.00 W/m2 unknown
21:24 73.4 °F /  23.0 °C 57.2 °F /  14.0 °C 30.1in /  1018.3hPa WNW 9.9mph /  16km/h 13mph /  21km/h 56% 0in /  0.00mm 0.00 W/m2 unknown
21:29 73.4 °F /  23.0 °C 57.2 °F /  14.0 °C 30.1in /  1018.3hPa West 5mph /  8km/h 11.2mph /  18km/h 57% 0in /  0.00mm 0.00 W/m2 unknown
21:34 73.4 °F /  23.0 °C 57.2 °F /  14.0 °C 30.1in /  1018.3hPa West 13mph /  21km/h 13mph /  21km/h 57% 0in /  0.00mm 0.00 W/m2 unknown
21:38 73.4 °F /  23.0 °C 57.2 °F /  14.0 °C 30.1in /  1018.3hPa West 14.3mph /  23km/h 14.3mph /  23km/h 57% 0in /  0.00mm 0.00 W/m2 unknown
21:44 73.4 °F /  23.0 °C 57.2 °F /  14.0 °C 30.1in /  1018.3hPa West 11.8mph /  19km/h 14.3mph /  23km/h 57% 0in /  0.00mm 0.00 W/m2 unknown
21:49 73.4 °F /  23.0 °C 57.2 °F /  14.0 °C 30.1in /  1018.3hPa West 16.2mph /  26km/h 16.2mph /  26km/h 57% 0in /  0.00mm 0.00 W/m2 unknown
21:54 73.4 °F /  23.0 °C 57.2 °F /  14.0 °C 30.1in /  1018.3hPa West 16.8mph /  27km/h 16.8mph /  27km/h 57% 0in /  0.00mm 0.00 W/m2 unknown
21:59 73.4 °F /  23.0 °C 57.2 °F /  14.0 °C 30.1in /  1018.3hPa West 16.8mph /  27km/h 16.8mph /  27km/h 57% 0in /  0.00mm 0.00 W/m2 unknown
22:04 73.4 °F /  23.0 °C 57.2 °F /  14.0 °C 30.1in /  1018.6hPa West 11.2mph /  18km/h 16.8mph /  27km/h 57% 0in /  0.00mm 0.00 W/m2 unknown
22:09 71.6 °F /  22.0 °C 57.2 °F /  14.0 °C 30.1in /  1018.6hPa West 16.8mph /  27km/h 16.8mph /  27km/h 57% 0in /  0.00mm 0.00 W/m2 unknown
22:13 71.6 °F /  22.0 °C 55.4 °F /  13.0 °C 30.1in /  1018.6hPa West 16.8mph /  27km/h 16.8mph /  27km/h 57% 0in /  0.00mm 0.00 W/m2 unknown
22:19 71.6 °F /  22.0 °C 55.4 °F /  13.0 °C 30.1in /  1018.6hPa WNW 18mph /  29km/h 19.3mph /  31km/h 57% 0in /  0.00mm 0.00 W/m2 unknown
22:24 71.6 °F /  22.0 °C 55.4 °F /  13.0 °C 30.1in /  1018.6hPa WNW 16.2mph /  26km/h 19.3mph /  31km/h 57% 0in /  0.00mm 0.00 W/m2 unknown
22:29 71.6 °F /  22.0 °C 55.4 °F /  13.0 °C 30.1in /  1018.6hPa WNW 19.3mph /  31km/h 19.3mph /  31km/h 57% 0in /  0.00mm 0.00 W/m2 unknown
22:34 71.6 °F /  22.0 °C 55.4 °F /  13.0 °C 30.1in /  1018.6hPa WNW 13mph /  21km/h 13mph /  21km/h 57% 0in /  0.00mm 0.00 W/m2 unknown
22:39 71.6 °F /  22.0 °C 55.4 °F /  13.0 °C 30.1in /  1018.6hPa WNW 19.9mph /  32km/h 19.9mph /  32km/h 57% 0in /  0.00mm 0.00 W/m2 unknown
22:44 71.6 °F /  22.0 °C 55.4 °F /  13.0 °C 30.1in /  1019.0hPa WNW 19.3mph /  31km/h 21.1mph /  34km/h 57% 0in /  0.00mm 0.00 W/m2 unknown
22:49 71.6 °F /  22.0 °C 55.4 °F /  13.0 °C 30.1in /  1018.6hPa WNW 21.7mph /  35km/h 21.7mph /  35km/h 57% 0in /  0.00mm 0.00 W/m2 unknown
22:54 69.8 °F /  21.0 °C 55.4 °F /  13.0 °C 30.1in /  1019.0hPa WNW 21.7mph /  35km/h 21.7mph /  35km/h 58% 0in /  0.00mm 0.00 W/m2 unknown
22:58 69.8 °F /  21.0 °C 55.4 °F /  13.0 °C 30.1in /  1019.0hPa WNW 19.3mph /  31km/h 21.7mph /  35km/h 58% 0in /  0.00mm 0.00 W/m2 unknown
23:04 69.8 °F /  21.0 °C 55.4 °F /  13.0 °C 30.1in /  1019.0hPa NW 16.8mph /  27km/h 21.7mph /  35km/h 59% 0in /  0.00mm 0.00 W/m2 unknown
23:09 69.8 °F /  21.0 °C 55.4 °F /  13.0 °C 30.1in /  1019.3hPa WNW 21.7mph /  35km/h 24.2mph /  39km/h 59% 0in /  0.00mm 0.00 W/m2 unknown
23:14 69.8 °F /  21.0 °C 55.4 °F /  13.0 °C 30.1in /  1019.3hPa WNW 16.2mph /  26km/h 24.2mph /  39km/h 59% 0in /  0.00mm 0.00 W/m2 unknown
23:19 69.8 °F /  21.0 °C 55.4 °F /  13.0 °C 30.1in /  1019.3hPa NW 19.9mph /  32km/h 24.2mph /  39km/h 59% 0in /  0.00mm 0.00 W/m2 unknown
23:23 69.8 °F /  21.0 °C 53.6 °F /  12.0 °C 30.1in /  1019.3hPa WNW 14.3mph /  23km/h 21.1mph /  34km/h 59% 0in /  0.00mm 0.00 W/m2 unknown
23:29 69.8 °F /  21.0 °C 53.6 °F /  12.0 °C 30.1in /  1019.3hPa WNW 21.1mph /  34km/h 21.1mph /  34km/h 59% 0in /  0.00mm 0.00 W/m2 unknown
23:34 69.8 °F /  21.0 °C 53.6 °F /  12.0 °C 30.1in /  1019.3hPa WNW 16.2mph /  26km/h 21.1mph /  34km/h 59% 0in /  0.00mm 0.00 W/m2 unknown
23:39 69.8 °F /  21.0 °C 53.6 °F /  12.0 °C 30.1in /  1019.3hPa NW 14.9mph /  24km/h 16.8mph /  27km/h 59% 0in /  0.00mm 0.00 W/m2 unknown
23:44 69.8 °F /  21.0 °C 53.6 °F /  12.0 °C 30.1in /  1019.3hPa NW 24.2mph /  39km/h 24.2mph /  39km/h 59% 0in /  0.00mm 0.00 W/m2 unknown
23:49 69.8 °F /  21.0 °C 53.6 °F /  12.0 °C 30.1in /  1019.6hPa NW 19.9mph /  32km/h 24.2mph /  39km/h 59% 0in /  0.00mm 0.00 W/m2 unknown
23:50 69.8 °F /  21.0 °C 53.6 °F /  12.0 °C 30.1in /  1019.6hPa NW 6.8mph /  11km/h 24.2mph /  39km/h 59% 0in /  0.00mm 0.00 W/m2 unknown
23:55 68 °F /  20.0 °C 53.6 °F /  12.0 °C 30.1in /  1019.6hPa NNW 8.1mph /  13km/h 19.9mph /  32km/h 59% 0in /  0.00mm 0.00 W/m2 unknown
Datos historicos para Xert